עמוד ראשי
METAR-TAF:

METAR-TAF

שדות תעופה :

נמל התעופה הבינלאומי אל עריש

אל עריש, מצרים

קו רוחב: 31-05N, קו אורך: 033-49E, גובה: 31מטר

תצפית מזג אוויר נוכחית

הדו"ח נערך לפני 3 שעות ו 35דקות, בשעה 23:00 UTC
רוח 4קשר מכיוון דרום-מערב
טמפרטורת 22 צלסיוס
לחות 83%
לחץ 1010 hPa
ראות 10 קילומטר או יותר
ללא עננים שבסיסם נמוך מ 5000 רגל או קומולונימבוס

METAR: HEAR 132300Z 23004KT CAVOK 22/19 Q1010 NOSIG

זמן: 04:35 (02:35 UTC)

תחזית

הדו"ח נערך לפני 3 שעות ו 35דקות, בשעה 23:00 UTC
תחזית בתוקף מ 14 ב 00 UTC עד 15 ב 06 UTC
רוח 6קשר מכיוון מערב
ראות 10 קילומטר או יותר
מעט עננים בגובה 2500רגל
זמנית מ -
14 ב 00 UTC עד 14 ב 06 UTC
רוח 3קשר עם כיוונים משתנים
ראות: 3000מטר
אד,

TAF: HEAR 132300Z 1400/1506 26006KT 9999 FEW025 TEMPO 1400/1406 VRB03KT 3000 BR

תצפיות ותחזיות מזג אוויר לגבי יותר מ- 4,000 שדות תעופה ברחבי העולם. דוחות METAR ו- TAF.

התחנות הזמינות מסומנות בנקודות צהובות ואדומות על גבי המפה.

העבר את העכבר לנקודה הצבעונית על מנת לראות את שם התחנה.

לאחר מכן, לחץ כדי לראות את תוכן ואת תחזיות מזג האוויר.

כדי לשנות את המפה: לחץ על הכפתורים הירוקים עם הפלוס השחור כדי להתקרב; על הכפתור הירוק עם המקף כדי להתרחק; או בחיצים הירוקים למפות סמוכות.


METAR-TAF: